Time;durP1;ratioP1;P1;durP2;ratioP2;P2;SDS_P1;SDS_P2;PMS_P1;PMS_P2;Temp;Humidity;BMP_temperature;BMP_pressure;BME280_temperature;BME280_humidity;BME280_pressure;Samples;Min_cycle;Max_cycle;Signal;HPM_P1;HPM_P2
2023/04/23 00:02:11;;;;;;;10.63;7.95;;;;;;;12.09;66.33;99987.22;5017119;28;20037;-79
2023/04/23 00:04:38;;;;;;;10.63;8.27;;;;;;;12.01;67.93;99986.66;5026164;28;20119;-79
2023/04/23 00:07:05;;;;;;;11.07;8.85;;;;;;;12.01;67.24;99988.44;5001500;28;20507;-79
2023/04/23 00:09:33;;;;;;;11.57;8.93;;;;;;;11.92;68.25;99980.84;5027926;28;20042;-78
2023/04/23 00:12:00;;;;;;;12.52;8.27;;;;;;;11.97;67.56;99978.91;5020162;28;20109;-79
2023/04/23 00:14:27;;;;;;;10.88;7.78;;;;;;;11.86;68.16;99976.66;5006158;28;20072;-79
2023/04/23 00:16:54;;;;;;;10.82;8.70;;;;;;;11.92;68.31;99967.59;5003932;28;20037;-78
2023/04/23 00:19:21;;;;;;;10.00;8.57;;;;;;;11.78;69.09;99963.66;5020343;28;20226;-79
2023/04/23 00:21:48;;;;;;;10.55;8.20;;;;;;;11.82;69.00;99960.00;5014603;28;20246;-79
2023/04/23 00:24:16;;;;;;;10.02;8.45;;;;;;;11.66;70.05;99966.72;5011550;28;20042;-79
2023/04/23 00:26:43;;;;;;;11.10;8.27;;;;;;;11.70;69.89;99962.22;5031747;28;20034;-78
2023/04/23 00:29:10;;;;;;;9.45;7.90;;;;;;;11.68;71.17;99956.94;5033629;28;20091;-80
2023/04/23 00:31:37;;;;;;;9.90;8.90;;;;;;;11.69;70.63;99960.50;5018403;28;20037;-79
2023/04/23 00:34:06;;;;;;;11.48;8.45;;;;;;;11.64;70.48;99955.34;5016550;28;20814;-79
2023/04/23 00:36:33;;;;;;;10.18;8.45;;;;;;;11.61;71.07;99952.84;5014844;28;20499;-79
2023/04/23 00:39:00;;;;;;;12.15;9.02;;;;;;;11.51;71.27;99954.91;5029665;28;20052;-79
2023/04/23 00:41:27;;;;;;;9.95;8.18;;;;;;;11.53;70.80;99960.19;5036125;28;20037;-78
2023/04/23 00:43:56;;;;;;;11.15;8.15;;;;;;;11.57;69.92;99956.50;5013139;28;20052;-80
2023/04/23 00:46:25;;;;;;;9.68;8.52;;;;;;;11.46;71.86;99956.88;5020116;28;20137;-79
2023/04/23 00:48:52;;;;;;;10.75;8.02;;;;;;;11.48;71.21;99954.16;5024513;28;20116;-80
2023/04/23 00:51:23;;;;;;;9.95;7.78;;;;;;;11.41;72.80;99950.88;5012053;28;20041;-79
2023/04/23 00:53:53;;;;;;;11.40;8.32;;;;;;;11.43;71.57;99951.66;5003470;28;20045;-79
2023/04/23 00:56:24;;;;;;;13.13;9.27;;;;;;;11.35;72.82;99950.22;5032879;28;20044;-79
2023/04/23 00:58:51;;;;;;;10.68;8.85;;;;;;;11.40;73.10;99957.09;5014008;28;20041;-79
2023/04/23 01:01:19;;;;;;;9.10;8.20;;;;;;;11.26;74.33;99954.03;5013624;28;20044;-80
2023/04/23 01:03:47;;;;;;;11.60;8.57;;;;;;;11.16;74.90;99948.22;4997594;28;20056;-79
2023/04/23 01:06:15;;;;;;;11.48;9.10;;;;;;;11.21;73.70;99953.34;4997658;28;20065;-79
2023/04/23 01:08:42;;;;;;;12.23;8.48;;;;;;;11.22;73.35;99949.78;5017952;28;20410;-79
2023/04/23 01:11:14;;;;;;;13.32;8.88;;;;;;;11.24;74.01;99943.53;5010785;28;20045;-80
2023/04/23 01:13:41;;;;;;;11.23;8.07;;;;;;;11.21;74.78;99938.34;5028287;28;20038;-79
2023/04/23 01:16:09;;;;;;;10.80;8.55;;;;;;;11.19;76.20;99947.25;4997101;28;20529;-80
2023/04/23 01:18:36;;;;;;;10.00;8.18;;;;;;;11.18;77.75;99943.75;4999353;28;20045;-80
2023/04/23 01:21:03;;;;;;;9.13;8.13;;;;;;;11.39;77.62;99941.28;5007198;28;20042;-79
2023/04/23 01:23:30;;;;;;;11.65;9.30;;;;;;;11.73;73.10;99933.00;5015712;28;20080;-81
2023/04/23 01:25:57;;;;;;;11.73;8.77;;;;;;;11.57;73.61;99940.63;4998452;28;20041;-79
2023/04/23 01:28:24;;;;;;;10.88;8.20;;;;;;;11.52;74.90;99932.88;4996563;28;20454;-79
2023/04/23 01:30:51;;;;;;;11.43;9.00;;;;;;;11.73;75.76;99928.56;5013047;28;20038;-78
2023/04/23 01:33:18;;;;;;;16.10;8.80;;;;;;;11.84;71.98;99928.19;5016271;28;20715;-80
2023/04/23 01:35:46;;;;;;;10.30;8.57;;;;;;;11.78;73.56;99929.25;5015640;28;20041;-80
2023/04/23 01:38:13;;;;;;;12.00;9.00;;;;;;;11.80;74.49;99918.66;5016727;28;20060;-79
2023/04/23 01:40:39;;;;;;;11.07;9.15;;;;;;;12.04;72.19;99938.03;5015534;28;20049;-78
2023/04/23 01:43:07;;;;;;;9.88;8.75;;;;;;;11.95;72.44;99930.44;5028917;28;20037;-79
2023/04/23 01:45:34;;;;;;;12.20;8.05;;;;;;;11.89;74.02;99928.03;5014461;28;20109;-79
2023/04/23 01:48:01;;;;;;;12.43;9.25;;;;;;;12.02;74.23;99921.31;4997255;28;20103;-80
2023/04/23 01:50:28;;;;;;;11.05;8.98;;;;;;;12.04;76.30;99923.00;5015094;28;20043;-79
2023/04/23 01:52:55;;;;;;;12.38;8.90;;;;;;;12.02;72.44;99922.22;4996181;28;20045;-80
2023/04/23 01:55:22;;;;;;;10.77;8.93;;;;;;;12.20;71.68;99923.28;5014137;28;20029;-80
2023/04/23 01:57:50;;;;;;;11.35;8.40;;;;;;;12.18;71.36;99919.81;5029373;28;20033;-80
2023/04/23 02:00:16;;;;;;;9.88;8.02;;;;;;;12.20;72.39;99922.44;5014028;28;20037;-80
2023/04/23 02:02:43;;;;;;;10.57;8.77;;;;;;;12.11;72.96;99926.31;5016494;28;20033;-79
2023/04/23 02:05:17;;;;;;;10.40;8.30;;;;;;;12.16;72.13;99919.03;5004235;28;20407;-80
2023/04/23 02:07:45;;;;;;;9.80;8.68;;;;;;;12.09;72.43;99915.75;4998676;28;20948;-79
2023/04/23 02:10:12;;;;;;;10.75;8.35;;;;;;;12.16;73.17;99916.38;5028694;28;20048;-79
2023/04/23 02:12:39;;;;;;;11.40;8.88;;;;;;;12.10;72.75;99919.25;5010020;28;20037;-80
2023/04/23 02:15:07;;;;;;;10.95;8.35;;;;;;;12.17;73.15;99920.75;5014485;28;20430;-79
2023/04/23 02:17:34;;;;;;;13.35;8.50;;;;;;;12.10;72.84;99913.94;5019527;28;20034;-79
2023/04/23 02:20:01;;;;;;;10.15;8.55;;;;;;;12.09;72.76;99913.09;5030540;28;20458;-80
2023/04/23 02:22:28;;;;;;;10.38;8.65;;;;;;;12.09;73.15;99917.53;5013672;28;20125;-79
2023/04/23 02:24:55;;;;;;;12.38;9.73;;;;;;;12.09;73.13;99918.38;4992955;28;20036;-80
2023/04/23 02:27:21;;;;;;;12.68;9.18;;;;;;;12.08;72.70;99921.09;5029047;28;20410;-80
2023/04/23 02:29:48;;;;;;;9.68;8.32;;;;;;;12.15;72.92;99927.03;5013600;28;20045;-79
2023/04/23 02:32:15;;;;;;;11.15;8.75;;;;;;;12.19;74.68;99918.94;5012360;28;20056;-80
2023/04/23 02:34:42;;;;;;;12.07;8.90;;;;;;;12.15;77.34;99922.59;5031372;28;20104;-80
2023/04/23 02:37:09;;;;;;;9.55;8.32;;;;;;;12.07;78.69;99922.88;5027536;28;20034;-81
2023/04/23 02:39:37;;;;;;;10.60;8.52;;;;;;;12.09;80.69;99922.81;5015275;28;20042;-80
2023/04/23 02:42:05;;;;;;;9.75;8.35;;;;;;;12.17;79.13;99912.81;5027745;28;20037;-79
2023/04/23 02:44:31;;;;;;;9.18;8.05;;;;;;;12.11;78.83;99916.56;5028803;28;20040;-81
2023/04/23 02:46:58;;;;;;;11.15;8.18;;;;;;;12.04;78.45;99911.56;5015230;28;20041;-79
2023/04/23 02:49:25;;;;;;;10.57;8.45;;;;;;;12.02;78.17;99908.09;4994211;28;20121;-79
2023/04/23 02:51:52;;;;;;;10.02;8.77;;;;;;;11.97;79.04;99910.06;4994607;28;20095;-80
2023/04/23 02:54:18;;;;;;;11.80;9.80;;;;;;;12.00;79.11;99902.84;5002256;28;20041;-79
2023/04/23 02:56:45;;;;;;;12.75;8.85;;;;;;;11.99;79.09;99916.16;5018182;28;20050;-79
2023/04/23 02:59:12;;;;;;;10.40;9.18;;;;;;;12.01;80.57;99906.38;5015133;28;20041;-81
2023/04/23 03:01:38;;;;;;;11.88;9.57;;;;;;;11.98;80.59;99904.72;4996626;28;20045;-80
2023/04/23 03:04:06;;;;;;;8.98;8.05;;;;;;;11.99;80.46;99905.56;5007891;28;20044;-79
2023/04/23 03:06:36;;;;;;;9.60;8.40;;;;;;;11.99;80.23;99903.78;4997636;28;20073;-80
2023/04/23 03:09:03;;;;;;;11.23;8.45;;;;;;;11.98;80.76;99901.19;5020836;28;20605;-80
2023/04/23 03:11:30;;;;;;;9.50;8.45;;;;;;;11.94;82.42;99907.53;5006449;28;20045;-80
2023/04/23 03:13:56;;;;;;;11.60;8.18;;;;;;;12.06;81.16;99901.78;5012096;28;20036;-80
2023/04/23 03:16:23;;;;;;;9.45;8.40;;;;;;;11.98;82.43;99914.44;5011827;28;20038;-79
2023/04/23 03:18:50;;;;;;;11.60;9.68;;;;;;;12.13;82.95;99913.84;5009489;28;20052;-79
2023/04/23 03:21:17;;;;;;;12.13;8.88;;;;;;;12.28;81.67;99904.47;5012606;28;20041;-80
2023/04/23 03:23:43;;;;;;;9.55;8.65;;;;;;;12.13;83.51;99897.09;5029373;28;20037;-79
2023/04/23 03:26:10;;;;;;;11.13;9.85;;;;;;;12.02;84.48;99892.22;5001930;28;20057;-79
2023/04/23 03:28:37;;;;;;;11.93;9.10;;;;;;;12.02;86.98;99900.16;5034828;28;20033;-80
2023/04/23 03:31:04;;;;;;;10.30;9.05;;;;;;;11.98;88.46;99894.13;5016936;28;20041;-79
2023/04/23 03:33:30;;;;;;;12.52;8.73;;;;;;;11.94;89.31;99895.19;5009312;28;20033;-78
2023/04/23 03:35:57;;;;;;;11.77;9.13;;;;;;;11.95;89.99;99898.69;5018380;28;20125;-78
2023/04/23 03:38:24;;;;;;;12.23;8.90;;;;;;;11.93;90.24;99895.22;5002149;28;20048;-80
2023/04/23 03:40:51;;;;;;;11.88;8.60;;;;;;;11.89;90.62;99889.19;5016094;28;20508;-78
2023/04/23 03:43:18;;;;;;;12.20;8.52;;;;;;;11.88;90.72;99882.16;5021368;28;20050;-78
2023/04/23 03:45:45;;;;;;;8.73;7.88;;;;;;;11.91;90.74;99887.34;5037438;28;20057;-79
2023/04/23 03:48:11;;;;;;;11.10;8.43;;;;;;;11.91;91.70;99887.34;5014766;28;20109;-79
2023/04/23 03:50:39;;;;;;;10.95;9.13;;;;;;;11.95;93.24;99886.31;5031657;28;20049;-79
2023/04/23 03:53:07;;;;;;;11.35;9.13;;;;;;;11.91;93.52;99884.69;5002831;28;20433;-79
2023/04/23 03:55:33;;;;;;;10.45;9.00;;;;;;;11.84;94.32;99886.69;5020043;28;20043;-79
2023/04/23 03:58:01;;;;;;;10.70;8.95;;;;;;;11.88;94.65;99881.31;5017591;28;20119;-80
2023/04/23 04:00:27;;;;;;;11.63;9.18;;;;;;;11.87;94.76;99884.88;5002303;28;20040;-79
2023/04/23 04:02:54;;;;;;;10.32;8.63;;;;;;;11.88;94.85;99881.31;5023042;28;20044;-79
2023/04/23 04:05:21;;;;;;;10.25;8.68;;;;;;;11.89;94.23;99885.69;5009339;28;20549;-79
2023/04/23 04:07:48;;;;;;;11.23;9.07;;;;;;;11.90;93.43;99880.31;5009411;28;20037;-79
2023/04/23 04:10:15;;;;;;;9.57;8.02;;;;;;;11.88;92.90;99882.16;5019908;28;20060;-79
2023/04/23 04:12:43;;;;;;;10.57;8.52;;;;;;;11.94;92.15;99883.69;5018572;28;20077;-79
2023/04/23 04:15:11;;;;;;;11.15;8.52;;;;;;;11.91;92.86;99875.88;5028476;28;20045;-80
2023/04/23 04:17:38;;;;;;;11.43;8.80;;;;;;;11.91;92.53;99876.75;5037132;28;20049;-79
2023/04/23 04:20:10;;;;;;;9.52;8.50;;;;;;;11.94;91.63;99875.75;5017846;28;20378;-77
2023/04/23 04:22:37;;;;;;;9.00;8.10;;;;;;;11.95;92.35;99878.38;5032911;28;20461;-80
2023/04/23 04:25:04;;;;;;;11.60;9.00;;;;;;;11.92;95.33;99873.16;5012305;28;20038;-80
2023/04/23 04:27:33;;;;;;;9.82;8.15;;;;;;;11.94;95.08;99870.47;5016439;28;20046;-80
2023/04/23 04:30:01;;;;;;;10.20;8.52;;;;;;;11.95;96.21;99874.84;5013036;28;20061;-77
2023/04/23 04:32:27;;;;;;;10.68;8.23;;;;;;;11.97;98.33;99875.66;5028809;28;20072;-79
2023/04/23 04:34:54;;;;;;;11.93;9.40;;;;;;;12.00;100.00;99871.09;4981859;28;20029;-80
2023/04/23 04:37:21;;;;;;;10.02;8.88;;;;;;;12.02;100.00;99868.38;5014964;28;20045;-79
2023/04/23 04:39:47;;;;;;;10.07;9.02;;;;;;;12.00;100.00;99876.38;5000324;28;20045;-77
2023/04/23 04:42:14;;;;;;;9.77;8.32;;;;;;;11.99;100.00;99872.03;4999684;28;20062;-79
2023/04/23 04:44:42;;;;;;;10.82;8.55;;;;;;;12.02;100.00;99873.69;5032595;28;20049;-78
2023/04/23 04:47:09;;;;;;;10.60;9.00;;;;;;;12.03;100.00;99873.63;5015456;28;20041;-78
2023/04/23 04:49:37;;;;;;;8.63;7.68;;;;;;;12.07;100.00;99872.59;4998264;28;20399;-79
2023/04/23 04:52:03;;;;;;;10.38;8.38;;;;;;;12.11;100.00;99884.78;5033952;28;20084;-79
2023/04/23 04:54:30;;;;;;;11.20;8.27;;;;;;;12.18;100.00;99888.03;4982911;28;20068;-79
2023/04/23 04:56:57;;;;;;;9.52;8.02;;;;;;;12.23;100.00;99883.44;5014456;28;20037;-79
2023/04/23 04:59:23;;;;;;;11.15;8.05;;;;;;;12.31;100.00;99881.34;5011116;28;20095;-78
2023/04/23 05:01:50;;;;;;;10.07;7.70;;;;;;;12.39;100.00;99891.63;5018601;28;20644;-78
2023/04/23 05:04:16;;;;;;;8.35;7.10;;;;;;;12.47;100.00;99886.91;5031017;28;20498;-78
2023/04/23 05:06:43;;;;;;;9.27;7.43;;;;;;;12.59;100.00;99888.16;5017239;28;20042;-79
2023/04/23 05:09:10;;;;;;;11.77;7.57;;;;;;;12.56;100.00;99886.53;5030762;28;20111;-79
2023/04/23 05:11:37;;;;;;;9.18;7.30;;;;;;;12.63;100.00;99885.34;5012302;28;20503;-79
2023/04/23 05:14:03;;;;;;;9.40;7.97;;;;;;;12.75;100.00;99885.75;4995050;28;20044;-80
2023/04/23 05:16:30;;;;;;;7.97;7.18;;;;;;;12.74;100.00;99882.25;5024857;28;20387;-80
2023/04/23 05:18:57;;;;;;;12.95;7.75;;;;;;;12.80;100.00;99879.34;5025745;28;20217;-79
2023/04/23 05:21:26;;;;;;;8.77;6.85;;;;;;;12.84;100.00;99875.63;5012660;28;20041;-79
2023/04/23 05:23:53;;;;;;;9.32;6.90;;;;;;;12.85;100.00;99872.03;5029118;28;20033;-80
2023/04/23 05:26:20;;;;;;;8.00;6.93;;;;;;;12.93;100.00;99875.22;5030762;28;20033;-79
2023/04/23 05:28:46;;;;;;;7.95;7.10;;;;;;;12.92;100.00;99873.50;5017387;28;20052;-79
2023/04/23 05:31:13;;;;;;;8.88;7.03;;;;;;;13.07;100.00;99874.66;4982933;28;20042;-80
2023/04/23 05:33:42;;;;;;;8.35;7.40;;;;;;;13.00;100.00;99890.88;5011910;28;20044;-80
2023/04/23 05:36:16;;;;;;;10.88;8.10;;;;;;;12.93;100.00;99890.28;5000584;28;20111;-80
2023/04/23 05:38:43;;;;;;;11.00;8.52;;;;;;;12.91;100.00;99890.34;5029671;28;20049;-80
2023/04/23 05:41:09;;;;;;;9.93;8.45;;;;;;;12.81;100.00;99890.81;4995273;28;20045;-80
2023/04/23 05:43:36;;;;;;;10.02;8.32;;;;;;;12.78;100.00;99898.88;5033167;28;20038;-80
2023/04/23 05:46:05;;;;;;;10.25;8.40;;;;;;;12.64;100.00;99897.66;5032385;28;20029;-81
2023/04/23 05:48:32;;;;;;;9.93;8.18;;;;;;;12.63;100.00;99903.03;5012252;28;20064;-80
2023/04/23 05:50:59;;;;;;;12.13;8.52;;;;;;;12.58;100.00;99902.34;5017370;28;20080;-80
2023/04/23 05:53:27;;;;;;;15.13;10.90;;;;;;;12.54;100.00;99903.41;5021435;28;20034;-80
2023/04/23 05:55:53;;;;;;;15.70;10.45;;;;;;;12.53;100.00;99899.91;4993601;28;20048;-79
2023/04/23 05:58:22;;;;;;;16.63;11.73;;;;;;;12.48;100.00;99895.69;5012851;28;20042;-80
2023/04/23 06:00:49;;;;;;;18.05;12.73;;;;;;;12.38;100.00;99901.38;5019231;28;20833;-79
2023/04/23 06:03:15;;;;;;;18.67;13.02;;;;;;;12.33;100.00;99900.69;4998006;28;20124;-80
2023/04/23 06:05:42;;;;;;;21.65;14.05;;;;;;;12.29;100.00;99896.44;4996606;28;20052;-79
2023/04/23 06:08:09;;;;;;;15.65;12.20;;;;;;;12.30;100.00;99908.75;5015061;28;20052;-79
2023/04/23 06:10:36;;;;;;;18.83;10.50;;;;;;;12.32;100.00;99898.09;4986740;28;20044;-79
2023/04/23 06:13:03;;;;;;;10.35;9.27;;;;;;;12.31;100.00;99899.03;5003443;28;20050;-79
2023/04/23 06:15:29;;;;;;;12.10;9.13;;;;;;;12.34;100.00;99904.19;5010460;28;20041;-79
2023/04/23 06:17:56;;;;;;;11.13;9.02;;;;;;;12.41;100.00;99905.69;5004962;28;20105;-80
2023/04/23 06:20:24;;;;;;;11.07;9.00;;;;;;;12.48;100.00;99911.59;5015611;28;20402;-79
2023/04/23 06:22:51;;;;;;;12.43;9.57;;;;;;;12.54;100.00;99912.22;5013975;28;20044;-80
2023/04/23 06:25:17;;;;;;;12.63;9.57;;;;;;;12.70;100.00;99904.50;5014924;28;20041;-79
2023/04/23 06:27:44;;;;;;;10.40;8.98;;;;;;;12.88;100.00;99893.13;5033347;28;20034;-79
2023/04/23 06:30:11;;;;;;;14.85;10.48;;;;;;;13.19;100.00;99907.72;5020641;28;20046;-80
2023/04/23 06:32:38;;;;;;;13.93;10.70;;;;;;;13.62;100.00;99901.44;5018715;28;20057;-79
2023/04/23 06:35:05;;;;;;;11.20;8.63;;;;;;;14.59;100.00;99911.94;5041662;28;20030;-80
2023/04/23 06:37:33;;;;;;;7.82;7.03;;;;;;;15.28;100.00;99910.25;5017553;28;20059;-79
2023/04/23 06:40:00;;;;;;;8.38;7.40;;;;;;;15.52;100.00;99906.31;5033485;28;20049;-80
2023/04/23 06:42:27;;;;;;;8.95;6.88;;;;;;;15.58;100.00;99908.66;5022543;28;20046;-79
2023/04/23 06:44:53;;;;;;;10.25;7.55;;;;;;;15.53;100.00;99907.19;5020063;28;20101;-79
2023/04/23 06:47:20;;;;;;;9.18;7.57;;;;;;;15.40;100.00;99907.84;5009224;28;20091;-79
2023/04/23 06:49:47;;;;;;;9.60;7.55;;;;;;;15.21;100.00;99907.91;5014879;28;20037;-79
2023/04/23 06:52:13;;;;;;;10.05;8.70;;;;;;;14.97;100.00;99906.53;5006447;28;20048;-79
2023/04/23 06:54:40;;;;;;;9.55;8.10;;;;;;;14.81;100.00;99916.22;5022626;28;20457;-79
2023/04/23 06:57:07;;;;;;;10.77;8.35;;;;;;;14.66;100.00;99904.53;5029565;28;20073;-78
2023/04/23 06:59:34;;;;;;;10.45;8.40;;;;;;;14.43;100.00;99916.22;5030952;28;20045;-78
2023/04/23 07:02:00;;;;;;;10.02;8.15;;;;;;;14.35;100.00;99907.78;5003718;28;20561;-79
2023/04/23 07:04:27;;;;;;;10.05;8.70;;;;;;;14.25;100.00;99901.19;5030940;28;20218;-79
2023/04/23 07:06:54;;;;;;;9.35;8.10;;;;;;;14.23;100.00;99903.06;5021379;28;20080;-79
2023/04/23 07:09:21;;;;;;;9.63;8.60;;;;;;;14.18;100.00;99915.69;5023702;28;20496;-78
2023/04/23 07:11:48;;;;;;;9.93;8.18;;;;;;;14.18;100.00;99916.53;4984526;28;20724;-80
2023/04/23 07:14:15;;;;;;;9.07;8.10;;;;;;;14.21;100.00;99911.09;5020512;28;20049;-82
2023/04/23 07:16:42;;;;;;;9.35;7.47;;;;;;;14.16;100.00;99910.44;5012678;28;20038;-79
2023/04/23 07:19:08;;;;;;;12.05;8.80;;;;;;;14.20;100.00;99905.84;5029674;28;20150;-79
2023/04/23 07:21:35;;;;;;;11.10;8.35;;;;;;;14.10;100.00;99913.38;5024947;28;20034;-79
2023/04/23 07:24:05;;;;;;;12.18;8.98;;;;;;;14.18;100.00;99915.69;5026262;28;20070;-78
2023/04/23 07:26:33;;;;;;;9.38;8.30;;;;;;;14.19;100.00;99912.09;5005991;28;20045;-79
2023/04/23 07:29:00;;;;;;;10.50;8.80;;;;;;;14.12;100.00;99918.63;5025416;28;21277;-78
2023/04/23 07:31:30;;;;;;;14.40;8.98;;;;;;;14.14;100.00;99920.28;5003154;28;20465;-79
2023/04/23 07:33:56;;;;;;;12.80;8.68;;;;;;;14.16;100.00;99925.53;5016742;28;20037;-78
2023/04/23 07:36:23;;;;;;;9.75;8.15;;;;;;;14.11;100.00;99930.19;5000443;28;20648;-79
2023/04/23 07:38:50;;;;;;;10.18;8.52;;;;;;;14.07;100.00;99930.34;5015813;28;20128;-79
2023/04/23 07:41:17;;;;;;;10.75;8.57;;;;;;;14.04;100.00;99945.53;5019882;28;20042;-79
2023/04/23 07:43:44;;;;;;;11.20;8.73;;;;;;;14.08;100.00;99937.38;5033234;28;20065;-82
2023/04/23 07:46:10;;;;;;;10.48;8.80;;;;;;;14.04;100.00;99948.19;5001938;28;20037;-81
2023/04/23 07:48:37;;;;;;;8.52;7.53;;;;;;;13.89;100.00;99938.28;5021511;28;20038;-79
2023/04/23 07:51:05;;;;;;;11.52;9.48;;;;;;;14.04;100.00;99943.75;5036080;28;20092;-82
2023/04/23 07:53:32;;;;;;;11.68;8.93;;;;;;;13.91;100.00;99941.72;5013820;28;20083;-82
2023/04/23 07:55:59;;;;;;;11.07;8.85;;;;;;;13.83;100.00;99949.19;4999807;28;20057;-80
2023/04/23 07:58:25;;;;;;;11.05;8.90;;;;;;;13.78;100.00;99950.22;5036554;28;20105;-82
2023/04/23 08:00:52;;;;;;;11.80;9.15;;;;;;;13.79;100.00;99956.44;5025292;28;20048;-81
2023/04/23 08:03:18;;;;;;;10.57;8.45;;;;;;;13.72;100.00;99949.66;5014367;28;20056;-79
2023/04/23 08:05:46;;;;;;;10.75;8.13;;;;;;;13.68;100.00;99959.53;5018533;28;20041;-80
2023/04/23 08:08:12;;;;;;;11.57;9.50;;;;;;;13.74;100.00;99958.41;5005710;28;20489;-79
2023/04/23 08:10:40;;;;;;;11.80;9.27;;;;;;;13.74;100.00;99963.72;5012052;28;20510;-76
2023/04/23 08:13:06;;;;;;;10.80;8.93;;;;;;;13.84;100.00;99969.50;4992730;28;20053;-81
2023/04/23 08:15:33;;;;;;;11.52;9.00;;;;;;;13.85;100.00;99956.13;5007226;28;20056;-79
2023/04/23 08:18:00;;;;;;;11.75;9.52;;;;;;;13.95;100.00;99960.09;5014417;28;20060;-79
2023/04/23 08:20:26;;;;;;;11.90;9.77;;;;;;;14.10;100.00;99955.88;5015650;28;20417;-79
2023/04/23 08:22:54;;;;;;;13.13;9.88;;;;;;;14.13;100.00;99958.41;5018076;28;20050;-78
2023/04/23 08:25:21;;;;;;;10.55;9.20;;;;;;;14.16;100.00;99958.25;5012960;28;20076;-78
2023/04/23 08:27:47;;;;;;;12.25;9.20;;;;;;;14.18;100.00;99955.53;5013105;28;20064;-78
2023/04/23 08:30:14;;;;;;;8.85;7.55;;;;;;;14.09;100.00;99954.16;5020385;28;20033;-79
2023/04/23 08:32:41;;;;;;;10.45;8.75;;;;;;;14.15;100.00;99953.03;5019725;28;20041;-78
2023/04/23 08:35:08;;;;;;;10.57;9.15;;;;;;;14.21;100.00;99945.63;5027993;28;20041;-77
2023/04/23 08:37:35;;;;;;;11.65;9.10;;;;;;;14.26;100.00;99950.72;5011782;28;20084;-79
2023/04/23 08:40:01;;;;;;;10.38;8.75;;;;;;;14.27;100.00;99953.31;5000615;28;20107;-78
2023/04/23 08:42:54;;;;;;;11.75;9.18;;;;;;;14.40;100.00;99960.72;5002946;28;20057;-78
2023/04/23 08:45:20;;;;;;;12.95;9.82;;;;;;;14.39;100.00;99956.34;5029619;28;20382;-78
2023/04/23 08:47:47;;;;;;;11.50;8.48;;;;;;;14.37;100.00;99967.88;5001367;28;20042;-79
2023/04/23 08:50:16;;;;;;;10.45;8.57;;;;;;;14.34;100.00;99961.84;5017855;28;20048;-78
2023/04/23 08:52:49;;;;;;;9.88;8.15;;;;;;;14.24;100.00;99958.78;5027678;28;20045;-79
2023/04/23 08:55:17;;;;;;;9.80;8.15;;;;;;;14.22;100.00;99965.09;5006911;28;20033;-79
2023/04/23 08:57:45;;;;;;;13.75;9.07;;;;;;;14.28;100.00;99963.00;5009361;28;20117;-78
2023/04/23 09:00:13;;;;;;;8.82;7.65;;;;;;;14.29;100.00;99969.16;5024106;28;20041;-80
2023/04/23 09:02:43;;;;;;;10.25;8.68;;;;;;;14.39;100.00;99966.97;5008450;28;20046;-79
2023/04/23 09:05:11;;;;;;;9.20;7.63;;;;;;;14.37;100.00;99969.66;5026016;28;20128;-79
2023/04/23 09:07:37;;;;;;;8.60;7.70;;;;;;;14.39;100.00;99972.28;5025527;28;20057;-79
2023/04/23 09:10:06;;;;;;;9.68;7.82;;;;;;;14.47;100.00;99975.47;5024052;28;20148;-79
2023/04/23 09:12:36;;;;;;;11.65;8.95;;;;;;;14.54;100.00;99975.06;5019325;28;20041;-78
2023/04/23 09:15:09;;;;;;;10.60;9.52;;;;;;;14.53;100.00;99977.81;5030966;28;20040;-78
2023/04/23 09:17:41;;;;;;;10.93;9.82;;;;;;;14.56;100.00;99972.38;5006663;28;20099;-79
2023/04/23 09:20:08;;;;;;;11.70;10.50;;;;;;;14.39;100.00;99977.59;5005348;28;20042;-78
2023/04/23 09:22:44;;;;;;;9.25;7.90;;;;;;;14.37;100.00;99970.53;5008352;28;20045;-78
2023/04/23 09:25:18;;;;;;;13.15;11.85;;;;;;;14.46;100.00;99976.38;5016793;28;20422;-78
2023/04/23 09:27:46;;;;;;;7.35;5.22;;;;;;;14.49;100.00;99976.25;5038467;28;20061;-78
2023/04/23 09:30:15;;;;;;;8.18;6.70;;;;;;;14.42;100.00;99972.97;5006797;28;20046;-77
2023/04/23 09:32:44;;;;;;;6.30;5.70;;;;;;;14.42;100.00;99974.78;5021225;28;20037;-79
2023/04/23 09:35:13;;;;;;;14.70;12.95;;;;;;;14.42;100.00;99972.97;5024842;28;20035;-78
2023/04/23 09:37:41;;;;;;;10.77;9.68;;;;;;;14.42;100.00;99972.13;5024122;28;20037;-79
2023/04/23 09:40:09;;;;;;;10.30;9.40;;;;;;;14.45;100.00;99966.66;5026804;28;20607;-79
2023/04/23 09:42:36;;;;;;;5.70;5.20;;;;;;;14.49;100.00;99974.47;4992479;28;20076;-78
2023/04/23 09:45:06;;;;;;;5.28;4.78;;;;;;;14.60;100.00;99976.59;5023550;28;20038;-77
2023/04/23 09:47:53;;;;;;;4.88;4.38;;;;;;;14.53;100.00;99980.47;5022926;28;20037;-78
2023/04/23 09:50:37;;;;;;;9.05;8.25;;;;;;;14.36;100.00;99986.56;5015836;28;20037;-79
2023/04/23 09:53:06;;;;;;;4.75;3.63;;;;;;;14.22;100.00;99989.88;5020163;28;20049;-78
2023/04/23 09:55:36;;;;;;;7.65;6.85;;;;;;;13.95;100.00;99984.00;4988379;28;20034;-79
2023/04/23 09:58:04;;;;;;;10.40;9.40;;;;;;;13.88;100.00;99985.22;5024944;28;20187;-79
2023/04/23 10:00:35;;;;;;;5.97;4.15;;;;;;;13.84;100.00;99975.66;5015189;28;20053;-77
2023/04/23 10:03:03;;;;;;;3.92;3.53;;;;;;;13.80;100.00;99988.22;5022369;28;20928;-79
2023/04/23 10:05:30;;;;;;;3.80;3.40;;;;;;;13.87;100.00;99980.81;5004238;28;20092;-79
2023/04/23 10:08:12;;;;;;;4.50;3.13;;;;;;;13.85;100.00;99974.72;5002781;28;20051;-78
2023/04/23 10:10:39;;;;;;;3.35;3.05;;;;;;;13.85;100.00;99982.69;5004860;28;20041;-78
2023/04/23 10:13:26;;;;;;;2.97;2.63;;;;;;;13.73;100.00;99992.06;5033374;28;20112;-77
2023/04/23 10:15:53;;;;;;;3.67;2.88;;;;;;;13.82;100.00;99993.47;5029360;28;20037;-78
2023/04/23 10:18:20;;;;;;;3.30;2.53;;;;;;;13.89;100.00;99991.41;5028910;28;20053;-79
2023/04/23 10:20:48;;;;;;;3.53;3.00;;;;;;;13.85;100.00;99995.97;5008200;28;20451;-79
2023/04/23 10:23:16;;;;;;;3.63;2.90;;;;;;;13.85;100.00;100003.06;5029113;28;20041;-79
2023/04/23 10:25:43;;;;;;;3.15;2.85;;;;;;;13.84;100.00;100002.22;5027343;28;20386;-79
2023/04/23 10:28:10;;;;;;;4.13;3.00;;;;;;;13.96;100.00;99992.84;5009147;28;20037;-78
2023/04/23 10:30:39;;;;;;;3.95;3.33;;;;;;;13.97;100.00;100000.75;5005947;28;20045;-80
2023/04/23 10:33:07;;;;;;;3.83;3.42;;;;;;;13.93;100.00;100008.91;5026656;28;20702;-81
2023/04/23 10:35:48;;;;;;;4.20;3.08;;;;;;;13.85;100.00;100009.25;5027300;28;20146;-80
2023/04/23 10:38:15;;;;;;;4.25;3.05;;;;;;;13.80;100.00;100001.50;5020380;28;20034;-79
2023/04/23 10:40:44;;;;;;;4.60;3.50;;;;;;;13.75;100.00;100007.94;5004912;28;20073;-81
2023/04/23 10:43:11;;;;;;;7.93;6.45;;;;;;;13.72;100.00;100008.06;5005637;28;20049;-79
2023/04/23 10:45:37;;;;;;;7.82;4.47;;;;;;;13.75;100.00;100013.22;5022700;28;20037;-81
2023/04/23 10:48:04;;;;;;;5.50;4.97;;;;;;;13.73;100.00;100004.50;5023816;28;20041;-80
2023/04/23 10:50:35;;;;;;;7.07;4.85;;;;;;;13.90;100.00;100011.72;5008607;28;20044;-81
2023/04/23 10:53:02;;;;;;;3.75;3.20;;;;;;;13.88;100.00;100019.75;5020804;28;20045;-80
2023/04/23 10:55:30;;;;;;;2.55;2.25;;;;;;;13.90;100.00;100014.38;5022062;28;20136;-79
2023/04/23 10:58:02;;;;;;;3.58;2.83;;;;;;;13.92;100.00;100013.34;5021522;28;20776;-80
2023/04/23 11:00:44;;;;;;;2.40;1.90;;;;;;;13.77;100.00;100022.00;5027761;28;20042;-81
2023/04/23 11:03:41;;;;;;;2.35;1.75;;;;;;;13.59;100.00;100022.78;5017906;28;20255;-81
2023/04/23 11:06:19;;;;;;;2.00;1.70;;;;;;;13.68;100.00;100019.75;5020658;28;20152;-79
2023/04/23 11:08:52;;;;;;;2.38;2.10;;;;;;;13.80;100.00;100016.56;5020114;28;20124;-80
2023/04/23 11:11:39;;;;;;;2.20;2.00;;;;;;;13.93;100.00;100015.06;5024638;28;20045;-80
2023/04/23 11:14:13;;;;;;;2.30;1.90;;;;;;;14.07;100.00;100009.16;5008731;28;20037;-81
2023/04/23 11:16:42;;;;;;;2.72;1.98;;;;;;;14.20;100.00;100009.44;5019494;28;20044;-82
2023/04/23 11:19:20;;;;;;;2.30;1.70;;;;;;;14.34;100.00;100015.00;5015685;28;20061;-81
2023/04/23 11:22:20;;;;;;;3.28;2.78;;;;;;;14.56;100.00;100010.44;5005648;28;20510;-83
2023/04/23 11:24:47;;;;;;;3.40;2.80;;;;;;;14.54;100.00;100020.25;5014123;28;20044;-82
2023/04/23 11:27:17;;;;;;;2.97;2.67;;;;;;;14.63;100.00;100019.00;5013404;28;20045;-82